sensor_id;sensor_type;location;lat;lon;timestamp;P1;durP1;ratioP1;P2;durP2;ratioP2
23175;SDS011;19910;42.652;23.332;2022-11-15T00:00:45;14.68;;;9.40;;
23175;SDS011;19910;42.652;23.332;2022-11-15T00:03:13;22.80;;;8.73;;
23175;SDS011;19910;42.652;23.332;2022-11-15T00:05:40;21.65;;;9.98;;
23175;SDS011;19910;42.652;23.332;2022-11-15T00:08:07;21.83;;;11.25;;
23175;SDS011;19910;42.652;23.332;2022-11-15T00:10:34;23.80;;;11.02;;
23175;SDS011;19910;42.652;23.332;2022-11-15T00:13:03;19.70;;;10.40;;
23175;SDS011;19910;42.652;23.332;2022-11-15T00:15:32;23.42;;;12.38;;
23175;SDS011;19910;42.652;23.332;2022-11-15T00:18:01;19.15;;;10.25;;
23175;SDS011;19910;42.652;23.332;2022-11-15T00:20:28;22.88;;;10.23;;
23175;SDS011;19910;42.652;23.332;2022-11-15T00:22:54;27.83;;;10.50;;
23175;SDS011;19910;42.652;23.332;2022-11-15T00:25:21;16.92;;;9.93;;
23175;SDS011;19910;42.652;23.332;2022-11-15T00:27:48;17.67;;;9.60;;
23175;SDS011;19910;42.652;23.332;2022-11-15T00:30:16;23.92;;;9.95;;
23175;SDS011;19910;42.652;23.332;2022-11-15T00:32:44;18.35;;;9.55;;
23175;SDS011;19910;42.652;23.332;2022-11-15T00:35:11;21.30;;;10.20;;
23175;SDS011;19910;42.652;23.332;2022-11-15T00:37:38;20.95;;;10.05;;
23175;SDS011;19910;42.652;23.332;2022-11-15T00:40:05;15.90;;;8.32;;
23175;SDS011;19910;42.652;23.332;2022-11-15T00:42:33;22.95;;;11.27;;
23175;SDS011;19910;42.652;23.332;2022-11-15T00:45:00;24.30;;;10.65;;
23175;SDS011;19910;42.652;23.332;2022-11-15T00:47:27;21.95;;;11.00;;
23175;SDS011;19910;42.652;23.332;2022-11-15T00:49:55;14.93;;;8.80;;
23175;SDS011;19910;42.652;23.332;2022-11-15T00:52:21;23.05;;;9.70;;
23175;SDS011;19910;42.652;23.332;2022-11-15T00:54:48;28.90;;;10.85;;
23175;SDS011;19910;42.652;23.332;2022-11-15T00:57:15;21.33;;;10.00;;
23175;SDS011;19910;42.652;23.332;2022-11-15T00:59:42;28.23;;;12.32;;
23175;SDS011;19910;42.652;23.332;2022-11-15T01:02:08;22.52;;;11.88;;
23175;SDS011;19910;42.652;23.332;2022-11-15T01:04:35;28.67;;;9.93;;
23175;SDS011;19910;42.652;23.332;2022-11-15T01:07:03;22.40;;;9.68;;
23175;SDS011;19910;42.652;23.332;2022-11-15T01:09:30;22.77;;;11.43;;
23175;SDS011;19910;42.652;23.332;2022-11-15T01:11:57;32.22;;;12.88;;
23175;SDS011;19910;42.652;23.332;2022-11-15T01:14:23;24.00;;;10.13;;
23175;SDS011;19910;42.652;23.332;2022-11-15T01:16:51;23.80;;;11.40;;
23175;SDS011;19910;42.652;23.332;2022-11-15T01:19:18;31.00;;;12.38;;
23175;SDS011;19910;42.652;23.332;2022-11-15T01:21:45;20.52;;;11.35;;
23175;SDS011;19910;42.652;23.332;2022-11-15T01:24:13;21.23;;;11.15;;
23175;SDS011;19910;42.652;23.332;2022-11-15T01:26:40;19.88;;;8.85;;
23175;SDS011;19910;42.652;23.332;2022-11-15T01:29:07;20.08;;;10.95;;
23175;SDS011;19910;42.652;23.332;2022-11-15T01:31:34;19.00;;;10.05;;
23175;SDS011;19910;42.652;23.332;2022-11-15T01:34:01;28.63;;;11.57;;
23175;SDS011;19910;42.652;23.332;2022-11-15T01:36:29;19.70;;;10.38;;
23175;SDS011;19910;42.652;23.332;2022-11-15T01:38:56;20.48;;;10.48;;
23175;SDS011;19910;42.652;23.332;2022-11-15T01:41:26;19.83;;;10.45;;
23175;SDS011;19910;42.652;23.332;2022-11-15T01:43:55;25.05;;;12.90;;
23175;SDS011;19910;42.652;23.332;2022-11-15T01:46:24;19.73;;;11.25;;
23175;SDS011;19910;42.652;23.332;2022-11-15T01:48:56;30.63;;;12.40;;
23175;SDS011;19910;42.652;23.332;2022-11-15T01:51:27;25.83;;;11.70;;
23175;SDS011;19910;42.652;23.332;2022-11-15T01:53:58;26.58;;;13.40;;
23175;SDS011;19910;42.652;23.332;2022-11-15T01:56:29;22.38;;;11.43;;
23175;SDS011;19910;42.652;23.332;2022-11-15T01:59:02;29.33;;;12.52;;
23175;SDS011;19910;42.652;23.332;2022-11-15T02:01:32;35.05;;;12.63;;
23175;SDS011;19910;42.652;23.332;2022-11-15T02:04:00;17.40;;;9.23;;
23175;SDS011;19910;42.652;23.332;2022-11-15T02:06:34;17.15;;;9.48;;
23175;SDS011;19910;42.652;23.332;2022-11-15T02:09:02;18.23;;;9.93;;
23175;SDS011;19910;42.652;23.332;2022-11-15T02:11:30;50.28;;;24.70;;
23175;SDS011;19910;42.652;23.332;2022-11-15T02:13:57;58.33;;;26.85;;
23175;SDS011;19910;42.652;23.332;2022-11-15T02:16:27;18.90;;;9.30;;
23175;SDS011;19910;42.652;23.332;2022-11-15T02:19:02;27.10;;;11.27;;
23175;SDS011;19910;42.652;23.332;2022-11-15T02:21:47;22.60;;;11.13;;
23175;SDS011;19910;42.652;23.332;2022-11-15T02:24:32;26.50;;;11.48;;
23175;SDS011;19910;42.652;23.332;2022-11-15T02:27:29;20.27;;;8.82;;
23175;SDS011;19910;42.652;23.332;2022-11-15T02:30:24;20.40;;;10.65;;
23175;SDS011;19910;42.652;23.332;2022-11-15T02:33:00;19.85;;;10.35;;
23175;SDS011;19910;42.652;23.332;2022-11-15T02:35:43;24.52;;;10.20;;
23175;SDS011;19910;42.652;23.332;2022-11-15T02:38:21;32.30;;;15.90;;
23175;SDS011;19910;42.652;23.332;2022-11-15T02:40:57;24.75;;;12.30;;
23175;SDS011;19910;42.652;23.332;2022-11-15T02:43:29;19.77;;;10.18;;
23175;SDS011;19910;42.652;23.332;2022-11-15T02:46:21;18.33;;;9.32;;
23175;SDS011;19910;42.652;23.332;2022-11-15T02:49:12;21.48;;;10.88;;
23175;SDS011;19910;42.652;23.332;2022-11-15T02:51:40;20.88;;;9.57;;
23175;SDS011;19910;42.652;23.332;2022-11-15T02:54:11;19.25;;;10.07;;
23175;SDS011;19910;42.652;23.332;2022-11-15T02:56:42;18.70;;;11.05;;
23175;SDS011;19910;42.652;23.332;2022-11-15T02:59:13;20.65;;;9.52;;
23175;SDS011;19910;42.652;23.332;2022-11-15T03:01:59;26.38;;;12.45;;
23175;SDS011;19910;42.652;23.332;2022-11-15T03:04:41;25.58;;;11.68;;
23175;SDS011;19910;42.652;23.332;2022-11-15T03:07:12;20.05;;;10.15;;
23175;SDS011;19910;42.652;23.332;2022-11-15T03:09:45;21.08;;;10.45;;
23175;SDS011;19910;42.652;23.332;2022-11-15T03:12:20;18.98;;;8.95;;
23175;SDS011;19910;42.652;23.332;2022-11-15T03:14:54;15.35;;;8.10;;
23175;SDS011;19910;42.652;23.332;2022-11-15T03:17:29;11.57;;;6.88;;
23175;SDS011;19910;42.652;23.332;2022-11-15T03:20:00;16.33;;;8.85;;
23175;SDS011;19910;42.652;23.332;2022-11-15T03:22:30;20.73;;;9.82;;
23175;SDS011;19910;42.652;23.332;2022-11-15T03:25:02;18.92;;;8.10;;
23175;SDS011;19910;42.652;23.332;2022-11-15T03:27:34;15.73;;;6.97;;
23175;SDS011;19910;42.652;23.332;2022-11-15T03:30:05;15.93;;;7.68;;
23175;SDS011;19910;42.652;23.332;2022-11-15T03:32:36;15.68;;;8.95;;
23175;SDS011;19910;42.652;23.332;2022-11-15T03:35:07;20.10;;;9.65;;
23175;SDS011;19910;42.652;23.332;2022-11-15T03:37:37;15.73;;;7.32;;
23175;SDS011;19910;42.652;23.332;2022-11-15T03:40:07;18.88;;;8.55;;
23175;SDS011;19910;42.652;23.332;2022-11-15T03:42:38;18.23;;;8.82;;
23175;SDS011;19910;42.652;23.332;2022-11-15T03:45:10;13.18;;;7.28;;
23175;SDS011;19910;42.652;23.332;2022-11-15T03:47:43;16.92;;;9.32;;
23175;SDS011;19910;42.652;23.332;2022-11-15T03:50:16;16.65;;;7.65;;
23175;SDS011;19910;42.652;23.332;2022-11-15T03:52:45;16.58;;;7.53;;
23175;SDS011;19910;42.652;23.332;2022-11-15T03:55:13;21.27;;;8.23;;
23175;SDS011;19910;42.652;23.332;2022-11-15T03:57:42;18.80;;;8.07;;
23175;SDS011;19910;42.652;23.332;2022-11-15T04:00:10;22.95;;;8.20;;
23175;SDS011;19910;42.652;23.332;2022-11-15T04:02:37;18.85;;;8.38;;
23175;SDS011;19910;42.652;23.332;2022-11-15T04:05:06;17.20;;;8.27;;
23175;SDS011;19910;42.652;23.332;2022-11-15T04:07:33;21.40;;;9.10;;
23175;SDS011;19910;42.652;23.332;2022-11-15T04:10:00;23.10;;;10.45;;
23175;SDS011;19910;42.652;23.332;2022-11-15T04:12:30;25.25;;;11.23;;
23175;SDS011;19910;42.652;23.332;2022-11-15T04:14:57;23.13;;;13.32;;
23175;SDS011;19910;42.652;23.332;2022-11-15T04:17:35;19.95;;;10.82;;
23175;SDS011;19910;42.652;23.332;2022-11-15T04:20:06;23.98;;;11.82;;
23175;SDS011;19910;42.652;23.332;2022-11-15T04:22:52;23.23;;;11.73;;
23175;SDS011;19910;42.652;23.332;2022-11-15T04:25:37;21.58;;;11.57;;
23175;SDS011;19910;42.652;23.332;2022-11-15T04:28:04;33.13;;;14.23;;
23175;SDS011;19910;42.652;23.332;2022-11-15T04:30:31;27.42;;;11.20;;
23175;SDS011;19910;42.652;23.332;2022-11-15T04:32:58;29.35;;;13.13;;
23175;SDS011;19910;42.652;23.332;2022-11-15T04:35:26;33.20;;;14.23;;
23175;SDS011;19910;42.652;23.332;2022-11-15T04:37:53;27.33;;;11.85;;
23175;SDS011;19910;42.652;23.332;2022-11-15T04:40:20;23.92;;;10.38;;
23175;SDS011;19910;42.652;23.332;2022-11-15T04:42:47;26.85;;;11.73;;
23175;SDS011;19910;42.652;23.332;2022-11-15T04:45:14;36.05;;;12.60;;
23175;SDS011;19910;42.652;23.332;2022-11-15T04:47:42;38.53;;;13.55;;
23175;SDS011;19910;42.652;23.332;2022-11-15T04:50:11;25.83;;;13.98;;
23175;SDS011;19910;42.652;23.332;2022-11-15T04:52:39;23.98;;;11.00;;
23175;SDS011;19910;42.652;23.332;2022-11-15T04:55:07;33.72;;;13.13;;
23175;SDS011;19910;42.652;23.332;2022-11-15T04:57:34;30.42;;;13.77;;
23175;SDS011;19910;42.652;23.332;2022-11-15T05:00:01;21.50;;;10.18;;
23175;SDS011;19910;42.652;23.332;2022-11-15T05:02:29;20.48;;;9.70;;
23175;SDS011;19910;42.652;23.332;2022-11-15T05:05:16;22.33;;;9.43;;
23175;SDS011;19910;42.652;23.332;2022-11-15T05:07:43;16.02;;;8.07;;
23175;SDS011;19910;42.652;23.332;2022-11-15T05:10:10;12.90;;;6.95;;
23175;SDS011;19910;42.652;23.332;2022-11-15T05:12:37;14.63;;;6.85;;
23175;SDS011;19910;42.652;23.332;2022-11-15T05:15:04;15.48;;;6.65;;
23175;SDS011;19910;42.652;23.332;2022-11-15T05:17:32;10.88;;;6.32;;
23175;SDS011;19910;42.652;23.332;2022-11-15T05:19:58;28.05;;;16.05;;
23175;SDS011;19910;42.652;23.332;2022-11-15T05:22:25;32.88;;;17.05;;
23175;SDS011;19910;42.652;23.332;2022-11-15T05:24:54;29.65;;;15.65;;
23175;SDS011;19910;42.652;23.332;2022-11-15T05:27:21;31.00;;;16.48;;
23175;SDS011;19910;42.652;23.332;2022-11-15T05:29:47;32.63;;;17.85;;
23175;SDS011;19910;42.652;23.332;2022-11-15T05:32:14;36.08;;;18.90;;
23175;SDS011;19910;42.652;23.332;2022-11-15T05:34:44;32.58;;;17.25;;
23175;SDS011;19910;42.652;23.332;2022-11-15T05:37:11;32.78;;;17.58;;
23175;SDS011;19910;42.652;23.332;2022-11-15T05:39:38;36.58;;;18.50;;
23175;SDS011;19910;42.652;23.332;2022-11-15T05:42:07;35.20;;;17.65;;
23175;SDS011;19910;42.652;23.332;2022-11-15T05:44:36;34.38;;;17.25;;
23175;SDS011;19910;42.652;23.332;2022-11-15T05:47:08;39.15;;;18.75;;
23175;SDS011;19910;42.652;23.332;2022-11-15T05:49:38;17.77;;;7.63;;
23175;SDS011;19910;42.652;23.332;2022-11-15T05:52:08;29.40;;;8.60;;
23175;SDS011;19910;42.652;23.332;2022-11-15T05:54:37;12.10;;;6.05;;
23175;SDS011;19910;42.652;23.332;2022-11-15T05:57:04;9.90;;;5.53;;
23175;SDS011;19910;42.652;23.332;2022-11-15T05:59:33;28.77;;;6.88;;
23175;SDS011;19910;42.652;23.332;2022-11-15T06:02:01;17.25;;;8.77;;
23175;SDS011;19910;42.652;23.332;2022-11-15T06:04:28;23.65;;;7.43;;
23175;SDS011;19910;42.652;23.332;2022-11-15T06:06:54;20.67;;;8.10;;
23175;SDS011;19910;42.652;23.332;2022-11-15T06:09:21;16.17;;;6.75;;
23175;SDS011;19910;42.652;23.332;2022-11-15T06:11:48;20.65;;;7.60;;
23175;SDS011;19910;42.652;23.332;2022-11-15T06:14:16;15.52;;;7.28;;
23175;SDS011;19910;42.652;23.332;2022-11-15T06:16:43;29.00;;;10.43;;
23175;SDS011;19910;42.652;23.332;2022-11-15T06:19:10;16.15;;;8.32;;
23175;SDS011;19910;42.652;23.332;2022-11-15T06:21:37;18.98;;;9.57;;
23175;SDS011;19910;42.652;23.332;2022-11-15T06:24:04;20.70;;;10.85;;
23175;SDS011;19910;42.652;23.332;2022-11-15T06:26:32;10.23;;;5.80;;
23175;SDS011;19910;42.652;23.332;2022-11-15T06:28:59;20.10;;;9.63;;
23175;SDS011;19910;42.652;23.332;2022-11-15T06:31:27;32.20;;;10.48;;
23175;SDS011;19910;42.652;23.332;2022-11-15T06:33:54;28.40;;;11.20;;
23175;SDS011;19910;42.652;23.332;2022-11-15T06:36:20;16.73;;;8.00;;
23175;SDS011;19910;42.652;23.332;2022-11-15T06:38:47;31.27;;;11.35;;
23175;SDS011;19910;42.652;23.332;2022-11-15T06:41:14;25.88;;;9.35;;
23175;SDS011;19910;42.652;23.332;2022-11-15T06:43:41;26.55;;;9.60;;
23175;SDS011;19910;42.652;23.332;2022-11-15T06:46:10;27.52;;;9.68;;
23175;SDS011;19910;42.652;23.332;2022-11-15T06:48:39;18.90;;;9.95;;
23175;SDS011;19910;42.652;23.332;2022-11-15T06:51:06;19.08;;;8.73;;
23175;SDS011;19910;42.652;23.332;2022-11-15T06:53:33;26.95;;;11.20;;
23175;SDS011;19910;42.652;23.332;2022-11-15T06:56:00;20.42;;;9.88;;
23175;SDS011;19910;42.652;23.332;2022-11-15T06:58:29;20.88;;;9.88;;
23175;SDS011;19910;42.652;23.332;2022-11-15T07:00:58;22.80;;;10.40;;
23175;SDS011;19910;42.652;23.332;2022-11-15T07:03:28;25.95;;;9.90;;
23175;SDS011;19910;42.652;23.332;2022-11-15T07:05:57;39.22;;;13.35;;
23175;SDS011;19910;42.652;23.332;2022-11-15T07:08:24;25.58;;;10.23;;
23175;SDS011;19910;42.652;23.332;2022-11-15T07:10:54;24.92;;;9.43;;
23175;SDS011;19910;42.652;23.332;2022-11-15T07:13:23;22.85;;;12.35;;
23175;SDS011;19910;42.652;23.332;2022-11-15T07:15:55;23.02;;;11.52;;
23175;SDS011;19910;42.652;23.332;2022-11-15T07:18:24;28.60;;;10.60;;
23175;SDS011;19910;42.652;23.332;2022-11-15T07:20:52;29.75;;;12.30;;
23175;SDS011;19910;42.652;23.332;2022-11-15T07:23:20;30.05;;;12.75;;
23175;SDS011;19910;42.652;23.332;2022-11-15T07:25:50;31.50;;;12.02;;
23175;SDS011;19910;42.652;23.332;2022-11-15T07:28:20;19.52;;;9.63;;
23175;SDS011;19910;42.652;23.332;2022-11-15T07:30:49;26.45;;;9.90;;
23175;SDS011;19910;42.652;23.332;2022-11-15T07:33:16;20.38;;;8.68;;
23175;SDS011;19910;42.652;23.332;2022-11-15T07:35:42;22.40;;;10.18;;
23175;SDS011;19910;42.652;23.332;2022-11-15T07:38:11;21.58;;;8.85;;
23175;SDS011;19910;42.652;23.332;2022-11-15T07:40:41;25.80;;;10.23;;
23175;SDS011;19910;42.652;23.332;2022-11-15T07:43:08;19.73;;;9.70;;
23175;SDS011;19910;42.652;23.332;2022-11-15T07:45:39;29.55;;;13.20;;
23175;SDS011;19910;42.652;23.332;2022-11-15T07:48:07;30.20;;;11.80;;
23175;SDS011;19910;42.652;23.332;2022-11-15T07:50:34;23.92;;;10.93;;
23175;SDS011;19910;42.652;23.332;2022-11-15T07:53:03;21.25;;;11.57;;
23175;SDS011;19910;42.652;23.332;2022-11-15T07:55:30;36.75;;;12.15;;
23175;SDS011;19910;42.652;23.332;2022-11-15T07:58:01;37.15;;;14.25;;
23175;SDS011;19910;42.652;23.332;2022-11-15T08:00:28;30.27;;;12.27;;
23175;SDS011;19910;42.652;23.332;2022-11-15T08:03:00;30.17;;;13.00;;
23175;SDS011;19910;42.652;23.332;2022-11-15T08:05:29;46.03;;;13.63;;
23175;SDS011;19910;42.652;23.332;2022-11-15T08:07:56;27.13;;;12.35;;
23175;SDS011;19910;42.652;23.332;2022-11-15T08:10:23;38.45;;;14.50;;
23175;SDS011;19910;42.652;23.332;2022-11-15T08:12:56;39.60;;;15.40;;
23175;SDS011;19910;42.652;23.332;2022-11-15T08:15:25;29.77;;;13.43;;
23175;SDS011;19910;42.652;23.332;2022-11-15T08:17:55;41.67;;;16.60;;
23175;SDS011;19910;42.652;23.332;2022-11-15T08:20:22;32.92;;;13.95;;
23175;SDS011;19910;42.652;23.332;2022-11-15T08:22:49;32.80;;;13.05;;
23175;SDS011;19910;42.652;23.332;2022-11-15T08:25:16;33.30;;;14.90;;
23175;SDS011;19910;42.652;23.332;2022-11-15T08:27:43;36.00;;;15.60;;
23175;SDS011;19910;42.652;23.332;2022-11-15T08:30:10;39.63;;;14.38;;
23175;SDS011;19910;42.652;23.332;2022-11-15T08:32:40;36.60;;;15.25;;
23175;SDS011;19910;42.652;23.332;2022-11-15T08:35:07;30.35;;;14.55;;
23175;SDS011;19910;42.652;23.332;2022-11-15T08:37:34;35.67;;;14.55;;
23175;SDS011;19910;42.652;23.332;2022-11-15T08:40:01;43.53;;;15.90;;
23175;SDS011;19910;42.652;23.332;2022-11-15T08:42:31;32.88;;;14.30;;
23175;SDS011;19910;42.652;23.332;2022-11-15T08:44:57;49.47;;;18.05;;
23175;SDS011;19910;42.652;23.332;2022-11-15T08:47:24;41.38;;;16.88;;
23175;SDS011;19910;42.652;23.332;2022-11-15T08:49:52;35.85;;;15.82;;
23175;SDS011;19910;42.652;23.332;2022-11-15T08:52:19;46.47;;;18.05;;
23175;SDS011;19910;42.652;23.332;2022-11-15T08:54:46;38.35;;;15.70;;
23175;SDS011;19910;42.652;23.332;2022-11-15T08:57:13;39.65;;;14.40;;
23175;SDS011;19910;42.652;23.332;2022-11-15T08:59:40;43.53;;;17.10;;
23175;SDS011;19910;42.652;23.332;2022-11-15T09:02:10;44.35;;;16.33;;
23175;SDS011;19910;42.652;23.332;2022-11-15T09:04:39;35.83;;;16.70;;
23175;SDS011;19910;42.652;23.332;2022-11-15T09:07:07;46.72;;;18.33;;
23175;SDS011;19910;42.652;23.332;2022-11-15T09:09:34;48.88;;;15.82;;
23175;SDS011;19910;42.652;23.332;2022-11-15T09:12:01;62.88;;;19.83;;
23175;SDS011;19910;42.652;23.332;2022-11-15T09:14:28;51.83;;;19.70;;
23175;SDS011;19910;42.652;23.332;2022-11-15T09:16:55;49.30;;;18.40;;
23175;SDS011;19910;42.652;23.332;2022-11-15T09:19:22;42.17;;;18.67;;
23175;SDS011;19910;42.652;23.332;2022-11-15T09:21:49;43.55;;;18.27;;
23175;SDS011;19910;42.652;23.332;2022-11-15T09:24:17;46.58;;;20.45;;
23175;SDS011;19910;42.652;23.332;2022-11-15T09:26:44;43.30;;;20.08;;
23175;SDS011;19910;42.652;23.332;2022-11-15T09:29:11;39.13;;;15.73;;
23175;SDS011;19910;42.652;23.332;2022-11-15T09:31:37;38.83;;;15.05;;
23175;SDS011;19910;42.652;23.332;2022-11-15T09:34:04;52.78;;;18.30;;
23175;SDS011;19910;42.652;23.332;2022-11-15T09:36:31;51.38;;;19.15;;
23175;SDS011;19910;42.652;23.332;2022-11-15T09:38:58;47.03;;;18.90;;
23175;SDS011;19910;42.652;23.332;2022-11-15T09:41:33;55.10;;;19.48;;
23175;SDS011;19910;42.652;23.332;2022-11-15T09:44:25;35.55;;;19.80;;
23175;SDS011;19910;42.652;23.332;2022-11-15T09:47:05;37.17;;;16.48;;
23175;SDS011;19910;42.652;23.332;2022-11-15T09:49:51;46.45;;;18.80;;
23175;SDS011;19910;42.652;23.332;2022-11-15T09:52:18;48.15;;;19.38;;
23175;SDS011;19910;42.652;23.332;2022-11-15T09:54:47;46.33;;;18.10;;
23175;SDS011;19910;42.652;23.332;2022-11-15T09:57:17;41.33;;;15.90;;
23175;SDS011;19910;42.652;23.332;2022-11-15T09:59:50;51.65;;;21.58;;
23175;SDS011;19910;42.652;23.332;2022-11-15T10:02:38;43.58;;;21.73;;
23175;SDS011;19910;42.652;23.332;2022-11-15T10:05:21;48.35;;;18.08;;
23175;SDS011;19910;42.652;23.332;2022-11-15T10:07:50;50.40;;;18.73;;
23175;SDS011;19910;42.652;23.332;2022-11-15T10:10:24;36.60;;;18.45;;
23175;SDS011;19910;42.652;23.332;2022-11-15T10:12:57;64.25;;;26.17;;
23175;SDS011;19910;42.652;23.332;2022-11-15T10:15:25;36.83;;;16.55;;
23175;SDS011;19910;42.652;23.332;2022-11-15T10:18:06;47.05;;;19.85;;
23175;SDS011;19910;42.652;23.332;2022-11-15T10:20:42;48.75;;;19.27;;
23175;SDS011;19910;42.652;23.332;2022-11-15T10:23:14;42.13;;;19.13;;
23175;SDS011;19910;42.652;23.332;2022-11-15T10:25:43;55.53;;;20.42;;
23175;SDS011;19910;42.652;23.332;2022-11-15T10:28:13;51.22;;;21.85;;
23175;SDS011;19910;42.652;23.332;2022-11-15T10:30:44;53.80;;;20.90;;
23175;SDS011;19910;42.652;23.332;2022-11-15T10:33:25;51.33;;;21.85;;
23175;SDS011;19910;42.652;23.332;2022-11-15T10:36:19;45.90;;;19.63;;
23175;SDS011;19910;42.652;23.332;2022-11-15T10:38:56;54.67;;;21.83;;
23175;SDS011;19910;42.652;23.332;2022-11-15T10:41:35;46.15;;;17.83;;
23175;SDS011;19910;42.652;23.332;2022-11-15T10:47:21;39.25;;;15.77;;
23175;SDS011;19910;42.652;23.332;2022-11-15T10:49:58;40.17;;;18.50;;
23175;SDS011;19910;42.652;23.332;2022-11-15T10:52:26;49.72;;;19.40;;
23175;SDS011;19910;42.652;23.332;2022-11-15T10:54:55;47.88;;;19.02;;
23175;SDS011;19910;42.652;23.332;2022-11-15T10:57:26;44.90;;;19.48;;
23175;SDS011;19910;42.652;23.332;2022-11-15T10:59:57;43.70;;;18.20;;
23175;SDS011;19910;42.652;23.332;2022-11-15T11:02:30;39.45;;;20.17;;
23175;SDS011;19910;42.652;23.332;2022-11-15T11:05:00;47.88;;;19.42;;
23175;SDS011;19910;42.652;23.332;2022-11-15T11:07:27;40.83;;;19.60;;
23175;SDS011;19910;42.652;23.332;2022-11-15T11:09:57;48.70;;;18.58;;
23175;SDS011;19910;42.652;23.332;2022-11-15T11:12:29;36.30;;;17.67;;
23175;SDS011;19910;42.652;23.332;2022-11-15T11:14:59;55.30;;;21.40;;
23175;SDS011;19910;42.652;23.332;2022-11-15T11:17:32;32.22;;;14.52;;
23175;SDS011;19910;42.652;23.332;2022-11-15T11:20:14;30.85;;;16.25;;
23175;SDS011;19910;42.652;23.332;2022-11-15T11:23:03;25.73;;;11.60;;
23175;SDS011;19910;42.652;23.332;2022-11-15T11:25:44;30.48;;;13.88;;
23175;SDS011;19910;42.652;23.332;2022-11-15T11:28:30;41.35;;;17.95;;
23175;SDS011;19910;42.652;23.332;2022-11-15T11:31:10;47.10;;;19.55;;
23175;SDS011;19910;42.652;23.332;2022-11-15T11:33:48;38.97;;;17.40;;
23175;SDS011;19910;42.652;23.332;2022-11-15T11:36:25;39.13;;;19.17;;
23175;SDS011;19910;42.652;23.332;2022-11-15T11:39:02;45.10;;;17.45;;
23175;SDS011;19910;42.652;23.332;2022-11-15T11:41:48;37.00;;;18.33;;
23175;SDS011;19910;42.652;23.332;2022-11-15T11:44:27;46.83;;;21.58;;
23175;SDS011;19910;42.652;23.332;2022-11-15T11:47:09;44.33;;;19.42;;
23175;SDS011;19910;42.652;23.332;2022-11-15T11:49:39;40.40;;;18.15;;
23175;SDS011;19910;42.652;23.332;2022-11-15T11:52:13;43.33;;;18.15;;
23175;SDS011;19910;42.652;23.332;2022-11-15T11:54:53;45.72;;;19.48;;
23175;SDS011;19910;42.652;23.332;2022-11-15T11:57:29;33.55;;;16.90;;
23175;SDS011;19910;42.652;23.332;2022-11-15T12:00:02;43.55;;;18.33;;
23175;SDS011;19910;42.652;23.332;2022-11-15T12:02:33;45.88;;;21.15;;
23175;SDS011;19910;42.652;23.332;2022-11-15T12:05:08;54.58;;;18.90;;
23175;SDS011;19910;42.652;23.332;2022-11-15T12:07:39;49.15;;;20.60;;
23175;SDS011;19910;42.652;23.332;2022-11-15T12:10:14;41.17;;;17.52;;
23175;SDS011;19910;42.652;23.332;2022-11-15T12:12:47;46.75;;;20.52;;
23175;SDS011;19910;42.652;23.332;2022-11-15T12:15:20;39.22;;;15.07;;
23175;SDS011;19910;42.652;23.332;2022-11-15T12:17:51;33.65;;;15.52;;
23175;SDS011;19910;42.652;23.332;2022-11-15T12:20:20;28.10;;;13.60;;
23175;SDS011;19910;42.652;23.332;2022-11-15T12:22:52;27.92;;;12.10;;
23175;SDS011;19910;42.652;23.332;2022-11-15T12:25:22;53.25;;;21.48;;
23175;SDS011;19910;42.652;23.332;2022-11-15T12:27:56;44.28;;;18.50;;
23175;SDS011;19910;42.652;23.332;2022-11-15T12:30:27;45.35;;;18.05;;
23175;SDS011;19910;42.652;23.332;2022-11-15T12:33:09;37.33;;;17.45;;
23175;SDS011;19910;42.652;23.332;2022-11-15T12:36:00;45.30;;;19.58;;
23175;SDS011;19910;42.652;23.332;2022-11-15T12:41:19;41.85;;;17.50;;
23175;SDS011;19910;42.652;23.332;2022-11-15T12:43:47;41.55;;;16.40;;
23175;SDS011;19910;42.652;23.332;2022-11-15T12:46:22;35.42;;;17.45;;
23175;SDS011;19910;42.652;23.332;2022-11-15T12:49:23;35.45;;;18.60;;
23175;SDS011;19910;42.652;23.332;2022-11-15T12:52:13;34.65;;;14.55;;
23175;SDS011;19910;42.652;23.332;2022-11-15T12:57:54;45.15;;;18.20;;
23175;SDS011;19910;42.652;23.332;2022-11-15T13:05:58;44.58;;;16.90;;
23175;SDS011;19910;42.652;23.332;2022-11-15T13:08:36;39.42;;;16.60;;
23175;SDS011;19910;42.652;23.332;2022-11-15T13:17:15;39.42;;;15.65;;
23175;SDS011;19910;42.652;23.332;2022-11-15T13:19:52;46.30;;;19.13;;
23175;SDS011;19910;42.652;23.332;2022-11-15T13:22:25;34.28;;;17.42;;
23175;SDS011;19910;42.652;23.332;2022-11-15T13:28:31;32.65;;;15.07;;
23175;SDS011;19910;42.652;23.332;2022-11-15T13:31:24;42.08;;;15.15;;
23175;SDS011;19910;42.652;23.332;2022-11-15T13:33:56;35.67;;;14.60;;
23175;SDS011;19910;42.652;23.332;2022-11-15T13:36:27;41.30;;;19.67;;
23175;SDS011;19910;42.652;23.332;2022-11-15T13:38:58;41.22;;;18.15;;
23175;SDS011;19910;42.652;23.332;2022-11-15T13:41:27;46.85;;;19.33;;
23175;SDS011;19910;42.652;23.332;2022-11-15T13:43:56;42.47;;;18.85;;
23175;SDS011;19910;42.652;23.332;2022-11-15T13:46:23;37.15;;;16.42;;
23175;SDS011;19910;42.652;23.332;2022-11-15T13:48:52;38.22;;;16.83;;
23175;SDS011;19910;42.652;23.332;2022-11-15T13:51:22;41.58;;;16.70;;
23175;SDS011;19910;42.652;23.332;2022-11-15T13:53:56;47.25;;;16.38;;
23175;SDS011;19910;42.652;23.332;2022-11-15T13:56:28;46.08;;;19.55;;
23175;SDS011;19910;42.652;23.332;2022-11-15T13:58:56;44.78;;;17.90;;
23175;SDS011;19910;42.652;23.332;2022-11-15T14:01:23;34.38;;;15.75;;
23175;SDS011;19910;42.652;23.332;2022-11-15T14:03:54;40.28;;;16.77;;
23175;SDS011;19910;42.652;23.332;2022-11-15T14:06:23;42.28;;;18.17;;
23175;SDS011;19910;42.652;23.332;2022-11-15T14:09:14;35.63;;;17.05;;
23175;SDS011;19910;42.652;23.332;2022-11-15T14:11:56;37.33;;;17.38;;
23175;SDS011;19910;42.652;23.332;2022-11-15T14:14:23;47.72;;;20.30;;
23175;SDS011;19910;42.652;23.332;2022-11-15T14:16:51;39.53;;;17.50;;
23175;SDS011;19910;42.652;23.332;2022-11-15T14:19:36;38.47;;;17.48;;
23175;SDS011;19910;42.652;23.332;2022-11-15T14:22:12;33.15;;;14.57;;
23175;SDS011;19910;42.652;23.332;2022-11-15T14:24:43;25.77;;;14.95;;
23175;SDS011;19910;42.652;23.332;2022-11-15T14:27:22;32.35;;;16.48;;
23175;SDS011;19910;42.652;23.332;2022-11-15T14:29:51;44.65;;;15.80;;
23175;SDS011;19910;42.652;23.332;2022-11-15T14:32:18;36.83;;;17.33;;
23175;SDS011;19910;42.652;23.332;2022-11-15T14:34:47;38.75;;;17.13;;
23175;SDS011;19910;42.652;23.332;2022-11-15T14:37:23;43.08;;;15.70;;
23175;SDS011;19910;42.652;23.332;2022-11-15T14:39:53;28.60;;;14.35;;
23175;SDS011;19910;42.652;23.332;2022-11-15T14:42:21;38.53;;;17.25;;
23175;SDS011;19910;42.652;23.332;2022-11-15T14:44:49;45.40;;;19.45;;
23175;SDS011;19910;42.652;23.332;2022-11-15T14:47:16;54.95;;;18.27;;
23175;SDS011;19910;42.652;23.332;2022-11-15T14:49:43;39.53;;;18.17;;
23175;SDS011;19910;42.652;23.332;2022-11-15T14:52:23;41.83;;;17.60;;
23175;SDS011;19910;42.652;23.332;2022-11-15T14:54:54;41.63;;;17.33;;
23175;SDS011;19910;42.652;23.332;2022-11-15T14:57:23;45.50;;;19.77;;